Flight Track Log - Related Links

Times and Time Zones

All times are in EDT time to prevent confusion due to time zone crossing. See the N6812W flight status page for this flight to view local times or setup timezone preferences in your user account.

Time Position Orientation Groundspeed Altitude Reporting Facility
EDT Latitude Longitude Course Direction KTS MPH feet Rate Location/Type
Mon 02:01:24 PM 28.3560 -81.4870 325° Northwest 201 231 3,300  Level FlightAware ADS-B
Mon 02:01:44 PM 28.3710 -81.4990 325° Northwest 204 235 4,000 1,077 Climbing FlightAware ADS-B
Mon 02:02:03 PM 28.3870 -81.5110 327° Northwest 235 270 4,000 732 Level FlightAware ADS-B
Mon 02:02:25 PM 28.4090 -81.5270 327° Northwest 227 261 4,500 2,341 Climbing FlightAware ADS-B
Mon 02:02:44 PM 28.4240 -81.5390 325° Northwest 199 229 5,600 3,209 Climbing FlightAware ADS-B
Mon 02:03:08 PM 28.4420 -81.5520 328° Northwest 182 209 6,800 2,727 Climbing FlightAware ADS-B
Mon 02:03:17 PM 28.4490 -81.5550 339° North 179 206 7,100 2,000 Climbing FlightAware ADS-B
Mon 02:03:23 PM 28.4530 -81.5560 348° North 179 206 7,300 2,516 Climbing FlightAware ADS-B
Mon 02:03:48 PM 28.4740 -81.5540 North 174 200 8,400 2,400 Climbing FlightAware ADS-B
Mon 02:04:08 PM 28.4890 -81.5520 North 168 193 9,100 2,250 Climbing FlightAware ADS-B
Mon 02:04:44 PM 28.5170 -81.5470 North 165 190 10,500 2,197 Climbing FlightAware ADS-B
Mon 02:05:19 PM 28.5430 -81.5380 17° North 163 188 11,700 1,250 Climbing FlightAware ADS-B
Mon 02:05:56 PM 28.5740 -81.5280 16° North 221 254 12,000 257 Climbing FlightAware ADS-B
Mon 02:06:29 PM 28.6100 -81.5170 15° North 259 298 12,000  Level FlightAware ADS-B
Mon 02:07:06 PM 28.6540 -81.5020 17° North 278 320 12,000  Level FlightAware ADS-B
Mon 02:07:40 PM 28.6980 -81.4870 17° North 287 330 12,000  Level FlightAware ADS-B
Mon 02:08:15 PM 28.7430 -81.4710 17° North 293 337 12,000  Level FlightAware ADS-B
Mon 02:08:47 PM 28.7850 -81.4570 16° North 294 338 12,000  Level FlightAware ADS-B
Mon 02:09:25 PM 28.8340 -81.4410 16° North 294 338 12,000  Level FlightAware ADS-B
Mon 02:10:01 PM 28.8810 -81.4250 17° North 294 338 12,000  Level FlightAware ADS-B
Mon 02:10:36 PM 28.9270 -81.4090 17° North 295 339 12,000  Level FlightAware ADS-B
Mon 02:11:21 PM 28.9730 -81.3940 16° North 294 338 12,000  Level FlightAware ADS-B
Mon 02:11:47 PM 29.0210 -81.3810 13° North 293 337 12,000  Level FlightAware ADS-B
Mon 02:12:13 PM 29.0560 -81.3850 354° North 290 334 12,000  Level FlightAware ADS-B
Mon 02:12:46 PM 29.1000 -81.3890 355° North 289 333 12,000  Level FlightAware ADS-B
Mon 02:13:14 PM 29.1380 -81.3920 356° North 289 333 12,000 1,200 Level FlightAware ADS-B
Mon 02:13:51 PM 29.1830 -81.3970 354° North 232 267 13,300 2,620 Climbing FlightAware ADS-B
Mon 02:14:25 PM 29.2150 -81.3990 357° North 187 215 15,100 2,667 Climbing FlightAware ADS-B
Mon 02:15:03 PM 29.2470 -81.4020 355° North 174 200 16,500 2,057 Climbing FlightAware ADS-B
Mon 02:15:35 PM 29.2720 -81.4050 354° North 168 193 17,500 1,765 Climbing FlightAware ADS-B
Mon 02:16:11 PM 29.3000 -81.4080 355° North 165 190 18,500 1,562 Climbing FlightAware ADS-B
Mon 02:16:48 PM 29.3280 -81.4110 355° North 162 186 19,400 1,286 Climbing FlightAware ADS-B
Mon 02:17:21 PM 29.3520 -81.4160 350° North 173 199 20,000 529 Climbing FlightAware ADS-B
Mon 02:17:56 PM 29.3830 -81.4240 347° North 214 246 20,000 971 Level FlightAware ADS-B
Mon 02:18:29 PM 29.4130 -81.4320 347° North 182 209 21,100 1,913 Climbing FlightAware ADS-B
Mon 02:19:05 PM 29.4420 -81.4380 350° North 168 193 22,200 1,433 Climbing FlightAware ADS-B
Mon 02:19:36 PM 29.4660 -81.4430 350° North 176 203 22,700 667 Climbing FlightAware ADS-B
Mon 02:20:17 PM 29.5010 -81.4520 347° North 203 234 23,000 234 Climbing FlightAware ADS-B
Mon 02:20:53 PM 29.5350 -81.4660 340° North 232 267 23,000 1,147 Level FlightAware ADS-B
Mon 02:21:25 PM 29.5650 -81.4770 342° North 191 220 24,300 1,791 Climbing FlightAware ADS-B
Mon 02:22:00 PM 29.5940 -81.4880 342° North 189 217 25,000 600 Climbing FlightAware ADS-B
Mon 02:22:35 PM 29.6250 -81.5000 341° North 222 255 25,000  Level FlightAware ADS-B
Mon 02:23:07 PM 29.6590 -81.5130 342° North 243 280 25,000 1,250 Level FlightAware ADS-B
Mon 02:23:47 PM 29.6960 -81.5260 343° North 192 221 26,500 1,579 Climbing FlightAware ADS-B
Mon 02:24:23 PM 29.7250 -81.5370 342° North 187 215 27,000 716 Climbing FlightAware ADS-B
Mon 02:24:54 PM 29.7510 -81.5470 342° North 191 220 27,300 529 Climbing FlightAware ADS-B
Mon 02:25:31 PM 29.7820 -81.5590 341° North 188 216 27,600 493 Climbing FlightAware ADS-B
Mon 02:26:07 PM 29.8120 -81.5700 342° North 187 215 27,900 522 Climbing FlightAware ADS-B
Mon 02:26:40 PM 29.8390 -81.5810 341° North 188 216 28,200 441 Climbing FlightAware ADS-B
Mon 02:27:15 PM 29.8680 -81.5920 342° North 189 217 28,400 423 Climbing FlightAware ADS-B
Mon 02:27:51 PM 29.8980 -81.6030 342° North 189 217 28,700 493 Climbing FlightAware ADS-B
Mon 02:28:28 PM 29.9290 -81.6140 343° North 188 216 29,000 257 Climbing FlightAware ADS-B
Mon 02:29:01 PM 29.9560 -81.6250 341° North 198 228 29,000  Level FlightAware ADS-B
Mon 02:29:35 PM 29.9880 -81.6370 342° North 208 239 29,000  Level FlightAware ADS-B
Mon 02:30:12 PM 30.0220 -81.6500 342° North 217 250 29,000  Level FlightAware ADS-B
Mon 02:30:43 PM 30.0520 -81.6610 342° North 224 258 29,000  Level FlightAware ADS-B
Mon 02:31:16 PM 30.0840 -81.6730 342° North 229 264 29,000  Level FlightAware ADS-B
Mon 02:31:56 PM 30.1270 -81.6890 342° North 234 269 29,000  Level FlightAware ADS-B
Mon 02:32:31 PM 30.1630 -81.7030 341° North 237 273 29,000  Level FlightAware ADS-B
Mon 02:33:05 PM 30.1990 -81.7170 341° North 241 277 29,000  Level FlightAware ADS-B
Mon 02:33:41 PM 30.2370 -81.7310 342° North 245 282 29,000  Level FlightAware ADS-B
Mon 02:34:17 PM 30.2770 -81.7460 342° North 249 287 29,000  Level FlightAware ADS-B
Mon 02:34:48 PM 30.3100 -81.7590 341° North 254 292 29,000  Level FlightAware ADS-B
Mon 02:35:25 PM 30.3530 -81.7750 342° North 260 299 29,000  Level FlightAware ADS-B
Mon 02:36:01 PM 30.3950 -81.7910 342° North 264 304 29,000  Level FlightAware ADS-B
Mon 02:36:38 PM 30.4380 -81.8080 341° North 266 306 29,000  Level FlightAware ADS-B
Mon 02:37:10 PM 30.4770 -81.8230 342° North 268 308 29,000  Level FlightAware ADS-B
Mon 02:37:47 PM 30.5190 -81.8390 342° North 269 310 29,000  Level FlightAware ADS-B
Mon 02:38:18 PM 30.5570 -81.8530 342° North 270 311 29,000  Level FlightAware ADS-B
Mon 02:38:54 PM 30.6000 -81.8700 341° North 271 312 29,000  Level FlightAware ADS-B
Mon 02:39:29 PM 30.6410 -81.8860 341° North 271 312 29,000  Level FlightAware ADS-B
Mon 02:40:06 PM 30.6860 -81.9030 342° North 271 312 29,000  Level FlightAware ADS-B
Mon 02:40:41 PM 30.7280 -81.9190 342° North 272 313 29,000  Level FlightAware ADS-B
Mon 02:41:16 PM 30.7690 -81.9340 343° North 272 313 29,000  Level FlightAware ADS-B
Mon 02:41:52 PM 30.8120 -81.9510 341° North 272 313 29,000  Level FlightAware ADS-B
Mon 02:42:24 PM 30.8520 -81.9670 341° North 272 313 29,000  Level FlightAware ADS-B
Mon 02:43:02 PM 30.8950 -81.9830 342° North 273 314 29,000  Level FlightAware ADS-B
Mon 02:43:34 PM 30.9360 -81.9990 341° North 273 314 29,000  Level FlightAware ADS-B
Mon 02:44:11 PM 30.9790 -82.0160 341° North 272 313 29,000  Level FlightAware ADS-B
Mon 02:44:48 PM 31.0240 -82.0330 342° North 272 313 29,000  Level FlightAware ADS-B
Mon 02:45:20 PM 31.0630 -82.0480 342° North 271 312 29,000  Level FlightAware ADS-B
Mon 02:45:55 PM 31.1020 -82.0630 342° North 271 312 29,000  Level FlightAware ADS-B
Mon 02:46:32 PM 31.1480 -82.0810 341° North 268 308 29,000  Level FlightAware ADS-B
Mon 02:47:09 PM 31.1910 -82.0980 341° North 268 308 29,000  Level FlightAware ADS-B
Mon 02:47:39 PM 31.2270 -82.1120 342° North 267 307 29,000  Level FlightAware ADS-B
Mon 02:48:16 PM 31.2690 -82.1280 342° North 267 307 29,000  Level FlightAware ADS-B
Mon 02:48:50 PM 31.3110 -82.1440 342° North 267 307 29,000  Level FlightAware ADS-B
Mon 02:49:27 PM 31.3540 -82.1610 341° North 267 307 29,000  Level FlightAware ADS-B
Mon 02:50:04 PM 31.3940 -82.1770 341° North 267 307 29,000  Level FlightAware ADS-B
Mon 02:50:41 PM 31.4300 -82.1920 340° North 267 307 29,000  Level FlightAware ADS-B
Mon 02:51:18 PM 31.4670 -82.2070 341° North 267 307 29,000  Level FlightAware ADS-B
Mon 02:51:54 PM 31.5030 -82.2210 342° North 267 307 29,000  Level FlightAware ADS-B
Mon 02:52:30 PM 31.5390 -82.2350 342° North 267 307 29,000  Level FlightAware ADS-B
Mon 02:53:01 PM 31.6060 -82.2590 343° North 263 303 29,000  Level FlightAware ADS-B
Mon 02:53:38 PM 31.6420 -82.2740 340° North 263 303 29,000  Level FlightAware ADS-B
Mon 02:54:15 PM 31.6780 -82.2890 340° North 263 303 29,000  Level FlightAware ADS-B
Mon 02:54:51 PM 31.7130 -82.3030 341° North 263 303 29,000  Level FlightAware ADS-B
Mon 02:55:27 PM 31.7480 -82.3170 341° North 263 303 29,000  Level FlightAware ADS-B
Mon 02:56:01 PM 31.7820 -82.3310 341° North 263 303 29,000  Level FlightAware ADS-B
Mon 02:56:38 PM 31.8180 -82.3450 342° North 263 303 29,000  Level FlightAware ADS-B
Mon 02:57:17 PM 31.9030 -82.3490 358° North 260 299 29,000  Level FlightAware ADS-B
Mon 02:57:56 PM 31.9480 -82.3670 341° North 256 295 29,000  Level FlightAware ADS-B
Mon 02:58:43 PM 31.9970 -82.3870 341° North 257 296 29,000  Level FlightAware ADS-B
Mon 02:59:19 PM 32.0310 -82.4010 341° North 257 296 29,000  Level FlightAware ADS-B
Mon 02:59:57 PM 32.0850 -82.4210 343° North 258 297 29,000  Level FlightAware ADS-B
Mon 03:00:31 PM 32.1220 -82.4360 341° North 259 298 29,000  Level FlightAware ADS-B
Mon 03:01:02 PM 32.1570 -82.4510 340° North 259 298 29,000  Level FlightAware ADS-B
Mon 03:01:42 PM 32.2030 -82.4690 342° North 257 296 29,000  Level FlightAware ADS-B
Mon 03:02:18 PM 32.2430 -82.4850 341° North 255 293 29,000  Level FlightAware ADS-B
Mon 03:02:51 PM 32.2810 -82.5010 340° North 255 293 29,000  Level FlightAware ADS-B
Mon 03:03:28 PM 32.3220 -82.5170 342° North 254 292 29,000  Level FlightAware ADS-B
Mon 03:04:00 PM 32.3590 -82.5320 341° North 254 292 29,000  Level FlightAware ADS-B
Mon 03:04:37 PM 32.3990 -82.5480 341° North 253 291 29,000  Level FlightAware ADS-B
Mon 03:05:13 PM 32.4400 -82.5650 341° North 253 291 29,000  Level FlightAware ADS-B
Mon 03:05:57 PM 32.4880 -82.5850 341° North 251 289 29,000  Level FlightAware ADS-B
Mon 03:06:41 PM 32.5360 -82.6040 342° North 251 289 29,000  Level FlightAware ADS-B
Mon 03:07:18 PM 32.5730 -82.6200 340° North 251 289 29,000  Level FlightAware ADS-B
Mon 03:07:46 PM 32.6070 -82.6330 342° North 250 288 29,000  Level FlightAware ADS-B
Mon 03:08:40 PM 32.6640 -82.6560 341° North 249 287 29,000  Level FlightAware ADS-B
Mon 03:09:18 PM 32.7020 -82.6720 340° North 248 285 29,000  Level FlightAware ADS-B
Mon 03:09:50 PM 32.7390 -82.6870 341° North 248 285 29,000  Level FlightAware ADS-B
Mon 03:10:32 PM 32.7880 -82.7070 341° North 246 283 29,000  Level FlightAware ADS-B
Mon 03:10:58 PM 32.8160 -82.7190 340° North 246 283 29,000  Level FlightAware ADS-B
Mon 03:11:46 PM 32.8680 -82.7400 341° North 245 282 29,000  Level FlightAware ADS-B
Mon 03:12:25 PM 32.9090 -82.7570 341° North 244 281 29,000  Level FlightAware ADS-B
Mon 03:12:57 PM 32.9420 -82.7710 340° North 245 282 29,000  Level FlightAware ADS-B
Mon 03:13:32 PM 32.9800 -82.7860 342° North 244 281 29,000  Level FlightAware ADS-B
Mon 03:14:09 PM 33.0170 -82.8010 341° North 243 280 29,000  Level FlightAware ADS-B
Mon 03:14:45 PM 33.0560 -82.8180 340° North 243 280 29,000  Level FlightAware ADS-B
Mon 03:15:21 PM 33.0960 -82.8340 341° North 243 280 29,000  Level FlightAware ADS-B
Mon 03:15:53 PM 33.1310 -82.8480 341° North 242 278 29,000  Level FlightAware ADS-B
Mon 03:16:28 PM 33.1690 -82.8640 341° North 243 280 29,000  Level FlightAware ADS-B
Mon 03:17:03 PM 33.2050 -82.8790 341° North 243 280 29,000  Level FlightAware ADS-B
Mon 03:17:39 PM 33.2450 -82.8960 340° North 243 280 29,000  Level FlightAware ADS-B
Mon 03:18:11 PM 33.2790 -82.9100 341° North 242 278 29,000  Level FlightAware ADS-B
Mon 03:18:46 PM 33.3160 -82.9250 341° North 242 278 29,000 -164 Level FlightAware ADS-B
Mon 03:19:24 PM 33.3560 -82.9420 340° North 251 289 28,800 -423 Descending FlightAware ADS-B
Mon 03:19:57 PM 33.3930 -82.9570 341° North 258 297 28,500 -514 Descending FlightAware ADS-B
Mon 03:20:34 PM 33.4340 -82.9740 341° North 262 302 28,200 -423 Descending FlightAware ADS-B
Mon 03:21:08 PM 33.4750 -82.9910 341° North 260 299 28,000 -167 Descending FlightAware ADS-B
Mon 03:21:46 PM 33.5180 -83.0090 341° North 253 291 28,000  Level FlightAware ADS-B
Mon 03:22:19 PM 33.5530 -83.0240 340° North 249 287 28,000  Level FlightAware ADS-B
Mon 03:22:56 PM 33.5940 -83.0410 341° North 246 283 28,000  Level FlightAware ADS-B
Mon 03:23:30 PM 33.6300 -83.0560 341° North 244 281 28,000  Level FlightAware ADS-B
Mon 03:24:05 PM 33.6670 -83.0710 341° North 242 278 28,000  Level FlightAware ADS-B
Mon 03:24:37 PM 33.7020 -83.0860 340° North 242 278 28,000  Level FlightAware ADS-B
Mon 03:25:14 PM 33.7400 -83.1020 341° North 243 280 28,000  Level FlightAware ADS-B
Mon 03:25:51 PM 33.7790 -83.1180 341° North 242 278 28,000  Level FlightAware ADS-B
Mon 03:26:22 PM 33.8120 -83.1320 341° North 241 277 28,000  Level FlightAware ADS-B
Mon 03:27:00 PM 33.8530 -83.1490 341° North 240 276 28,000  Level FlightAware ADS-B
Mon 03:27:35 PM 33.8890 -83.1650 340° North 240 276 28,000  Level FlightAware ADS-B
Mon 03:28:08 PM 33.9240 -83.1790 342° North 241 277 28,000  Level FlightAware ADS-B
Mon 03:28:45 PM 33.9630 -83.1960 340° North 241 277 28,000  Level FlightAware ADS-B
Mon 03:29:20 PM 33.9990 -83.2110 341° North 241 277 28,000  Level FlightAware ADS-B
Mon 03:29:51 PM 34.0330 -83.2250 341° North 241 277 28,000  Level FlightAware ADS-B
Mon 03:30:28 PM 34.0700 -83.2410 340° North 241 277 28,000  Level FlightAware ADS-B
Mon 03:31:04 PM 34.1090 -83.2570 341° North 241 277 28,000  Level FlightAware ADS-B
Mon 03:31:41 PM 34.1490 -83.2750 340° North 242 278 28,000  Level FlightAware ADS-B
Mon 03:32:12 PM 34.1810 -83.2880 341° North 242 278 28,000  Level FlightAware ADS-B
Mon 03:32:48 PM 34.2180 -83.3040 340° North 242 278 28,000  Level FlightAware ADS-B
Mon 03:33:25 PM 34.2580 -83.3210 341° North 242 278 28,000  Level FlightAware ADS-B
Mon 03:33:58 PM 34.2930 -83.3360 341° North 242 278 28,000  Level FlightAware ADS-B
Mon 03:34:32 PM 34.3290 -83.3510 341° North 242 278 28,000  Level FlightAware ADS-B
Mon 03:35:07 PM 34.3660 -83.3670 340° North 242 278 28,000  Level FlightAware ADS-B
Mon 03:35:44 PM 34.4050 -83.3830 341° North 241 277 28,000  Level FlightAware ADS-B
Mon 03:36:20 PM 34.4450 -83.4000 341° North 241 277 28,000  Level FlightAware ADS-B
Mon 03:36:31 PM 34.4564 -83.4052 339° North 242 278 28,000 -600 Level FlightAware ADS-B
Mon 03:37:30 PM 34.5130 -83.4480 328° Northwest 260 299 27,300 -957 Descending FlightAware ADS-B
Mon 03:38:05 PM 34.5480 -83.4800 323° Northwest 280 322 26,500 -1,391 Descending FlightAware ADS-B
Mon 03:38:39 PM 34.5820 -83.5110 323° Northwest 292 336 25,700 -1,433 Descending FlightAware ADS-B
Mon 03:39:12 PM 34.6180 -83.5430 324° Northwest 302 348 24,900 -1,469 Descending FlightAware ADS-B
Mon 03:39:28 PM 34.6380 -83.5530 338° Northwest 308 354 24,500 -1,543 Descending FlightAware ADS-B
Mon 03:39:47 PM 34.6686 -83.5629 345° North 308 354 24,000 -735 Descending FlightAware ADS-B
Mon 03:40:17 PM 34.7087 -83.5792 342° North 293 337 23,900 -800 Descending FlightAware ADS-B
Mon 03:40:47 PM 34.7488 -83.5955 342° North 304 350 23,200 -1,478 Descending FlightAware ADS-B
Mon 03:41:26 PM 34.8007 -83.6153 343° North 311 358 22,200 -1,457 Descending FlightAware ADS-B
Mon 03:41:57 PM 34.8443 -83.6315 343° North 313 360 21,500 -1,437 Descending FlightAware ADS-B
Mon 03:42:37 PM 34.8996 -83.6520 343° North 312 359 20,500 -1,521 Descending FlightAware ADS-B
Mon 03:43:08 PM 34.9427 -83.6679 343° North 312 359 19,700 -1,548 Descending FlightAware ADS-B
Mon 03:43:39 PM 34.9843 -83.6834 343° North 311 358 18,900 -1,452 Descending FlightAware ADS-B
Mon 03:44:10 PM 35.0269 -83.6993 343° North 310 357 18,200 -1,429 Descending FlightAware ADS-B
Mon 03:44:42 PM 35.0714 -83.7158 343° North 308 354 17,400 -1,500 Descending FlightAware ADS-B
Mon 03:45:06 PM 35.1044 -83.7280 343° North 308 354 16,800 -1,448 Descending FlightAware ADS-B
Mon 03:45:11 PM 35.1115 -83.7297 349° North 309 356 16,700 -1,500 Descending FlightAware ADS-B
Mon 03:45:42 PM 35.1545 -83.7355 354° North 307 353 15,900 -1,524 Descending FlightAware ADS-B
Mon 03:46:14 PM 35.1996 -83.7414 354° North 305 351 15,100 -1,455 Descending FlightAware ADS-B
Mon 03:46:48 PM 35.2478 -83.7478 354° North 303 349 14,300 -1,125 Descending FlightAware ADS-B
Mon 03:47:18 PM 35.2894 -83.7536 354° North 294 338 13,900 -393 Descending FlightAware ADS-B
Mon 03:47:49 PM 35.3303 -83.7592 354° North 288 331 13,900  Level FlightAware ADS-B
Mon 03:48:19 PM 35.3702 -83.7646 354° North 285 328 13,900  Level FlightAware ADS-B
Mon 03:48:30 PM 35.3841 -83.7682 348° North 284 327 13,900 -977 Level FlightAware ADS-B
Mon 03:49:02 PM 35.4237 -83.7897 336° Northwest 300 345 13,200 -1,352 Descending FlightAware ADS-B
Mon 03:49:41 PM 35.4743 -83.8165 337° Northwest 303 349 12,300 -1,775 Descending FlightAware ADS-B
Mon 03:50:13 PM 35.5150 -83.8378 337° Northwest 301 346 11,100 -2,095 Descending FlightAware ADS-B
Mon 03:50:44 PM 35.5553 -83.8590 337° Northwest 298 343 10,100 -1,565 Descending FlightAware ADS-B
Mon 03:50:59 PM 35.5741 -83.8689 337° Northwest 286 329 9,900 -400 Descending FlightAware ADS-B
Mon 03:51:14 PM 35.5919 -83.8783 337° Northwest 279 321 9,900 -581 Level FlightAware ADS-B
Mon 03:51:30 PM 35.6099 -83.8878 337° Northwest 275 316 9,600 -1,161 Descending FlightAware ADS-B
Mon 03:51:45 PM 35.6278 -83.8972 337° Northwest 277 319 9,300 -1,400 Descending FlightAware ADS-B
Mon 03:52:00 PM 35.6461 -83.9069 337° Northwest 275 316 8,900 -1,579 Descending FlightAware ADS-B
Mon 03:52:04 PM 35.6499 -83.9093 333° Northwest 270 311 8,800 -1,200 Descending FlightAware ADS-B
Mon 03:52:10 PM 35.6558 -83.9143 325° Northwest 262 302 8,700 -2,000 Descending FlightAware ADS-B
Mon 03:52:16 PM 35.6613 -83.9205 318° Northwest 258 297 8,400 -2,455 Descending FlightAware ADS-B
Mon 03:52:32 PM 35.6747 -83.9364 316° Northwest 252 290 7,800 -2,483 Descending FlightAware ADS-B
Mon 03:52:45 PM 35.6859 -83.9496 316° Northwest 248 285 7,200 -1,800 Descending FlightAware ADS-B
Mon 03:53:02 PM 35.6995 -83.9662 315° West 237 273 6,900 -818 Descending FlightAware ADS-B
Mon 03:53:07 PM 35.7034 -83.9708 316° Northwest 230 265 6,900  Level FlightAware ADS-B
Mon 03:53:18 PM 35.7135 -83.9778 331° Northwest 219 252 6,900  Level FlightAware ADS-B
Mon 03:53:25 PM 35.7204 -83.9789 353° North 212 244 6,900  Level FlightAware ADS-B
Mon 03:53:29 PM 35.7237 -83.9787 North 211 243 6,900  Level FlightAware ADS-B
Mon 03:53:33 PM 35.7274 -83.9777 12° North 210 242 6,900 -750 Level FlightAware ADS-B
Mon 03:53:37 PM 35.7315 -83.9756 23° Northeast 210 242 6,800 -1,714 Descending FlightAware ADS-B
Mon 03:53:40 PM 35.7340 -83.9738 30° Northeast 211 243 6,700 -1,000 Descending FlightAware ADS-B
Mon 03:53:43 PM 35.7364 -83.9714 39° Northeast 211 243 6,700 -857 Level FlightAware ADS-B
Mon 03:53:47 PM 35.7389 -83.9687 41° Northeast 212 244 6,600 -1,200 Descending FlightAware ADS-B
Mon 03:54:03 PM 35.7502 -83.9552 44° Northeast 219 252 6,300 -1,355 Descending FlightAware ADS-B
Mon 03:54:18 PM 35.7620 -83.9415 43° Northeast 226 260 5,900 -1,355 Descending FlightAware ADS-B
Mon 03:54:34 PM 35.7737 -83.9276 44° Northeast 232 267 5,600 -1,313 Descending FlightAware ADS-B
Mon 03:54:50 PM 35.7865 -83.9122 44° Northeast 235 270 5,200 -1,448 Descending FlightAware ADS-B
Mon 03:55:03 PM 35.7962 -83.9002 45° Northeast 232 267 4,900 -1,429 Descending FlightAware ADS-B
Mon 03:55:11 PM 35.8025 -83.8922 46° Northeast 221 254 4,700 -1,846 Descending FlightAware ADS-B
Mon 03:55:16 PM 35.8066 -83.8887 35° Northeast 217 250 4,500 -2,000 Descending FlightAware ADS-B
Mon 03:55:20 PM 35.8099 -83.8867 26° Northeast 216 249 4,400 -2,571 Descending FlightAware ADS-B
Mon 03:55:23 PM 35.8128 -83.8855 19° North 214 246 4,200 -3,000 Descending FlightAware ADS-B
Mon 03:55:26 PM 35.8158 -83.8847 12° North 213 245 4,100 -2,087 Descending FlightAware ADS-B
Mon 03:55:46 PM 35.8337 -83.8905 345° North 203 234 3,400 -1,750 Descending FlightAware ADS-B
Mon 03:55:50 PM 35.8363 -83.8938 314° West 193 222 3,400 -667 Level FlightAware ADS-B
Mon 03:55:55 PM 35.8388 -83.8975 310° West 184 212 3,300 -667 Descending FlightAware ADS-B
Mon 03:55:59 PM 35.8403 -83.9008 299° West 177 204 3,300 -857 Level FlightAware ADS-B
Mon 03:56:02 PM 35.8413 -83.9038 292° West 172 198 3,200 -1,714 Descending FlightAware ADS-B
Mon 03:56:06 PM 35.8422 -83.9078 286° West 170 196 3,100 -1,333 Descending FlightAware ADS-B
Mon 03:56:11 PM 35.8428 -83.9120 280° West 168 193 3,000 -1,600 Descending FlightAware ADS-B
Mon 03:56:21 PM 35.8430 -83.9216 271° West 164 189 2,700 -1,655 Descending FlightAware ADS-B
Mon 03:56:40 PM 35.8409 -83.9382 261° West 155 178 2,200 -1,680 Descending FlightAware ADS-B
Mon 03:56:46 PM 35.8398 -83.9430 254° West 151 174 2,000 -1,846 Descending FlightAware ADS-B
Mon 03:56:53 PM 35.8382 -83.9488 251° West 152 175 1,800 -1,364 Descending FlightAware ADS-B
Mon 03:57:08 PM 35.8340 -83.9601 245° Southwest 144 166 1,500 -842 Descending FlightAware ADS-B
Mon 03:57:50 PM 35.8170 -83.9833 228° Southwest 111 128 1,000 -714 Descending FlightAware ADS-B

Login

Don't have an account? Register now (free) for customized features, flight alerts, and more!